• Join FlightAware (Why Join?)
  • Login
  • US Flag 
10:22AM EDT


 

Airport Tracker/Info


-or-


 

Live Flight TrackerFlight Track Log ✈ DAL918 ✈ 18-Jun-2013 ✈ KATL - KAGS

Flight Track Log - Related Links

Times and Time Zones

All times are in EDT time to prevent confusion due to time zone crossing. See the DAL918 flight status page for this flight to view local times or setup timezone preferences in your user account.

Time Position Orientation Groundspeed Altitude Reporting Facility
EDT Latitude Longitude Course Direction KTS MPH feet Rate Location/Type
11:26PM 33.6000 -84.4833 86° East 195 224 2,500  Level Atlanta TRACON
11:27PM 33.5667 -84.5500 239° Southwest 261 300 4,900 2,220 Climbing Atlanta TRACON
11:28PM 33.5167 -84.5167 151° Southeast 281 323 7,200 1,740 Climbing Atlanta TRACON
11:29PM 33.6200 -83.9542 92° East  Level FlightAware Approximate
11:29PM 33.5036 -84.4200 99° East 307 353 8,800  Level Atlanta Center
11:30PM 33.6061 -83.8369 90° East  Level Estimated
11:30PM 33.5058 -84.3153 89° East 312 359 10,500  Level Atlanta Center
11:31PM 33.5922 -83.7196 90° East  Level Estimated
11:31PM 33.5081 -84.1983 89° East 320 368 11,400  Level Atlanta Center
11:32PM 33.5782 -83.6023 86° East  Level Estimated
11:32PM 33.5125 -84.0761 87° East 358 412 13,000  Level Atlanta Center
11:33PM 33.5186 -83.9492 87° East 379 436 14,700 1,560 Climbing Atlanta Center
11:34PM 33.5353 -83.8169 81° East 394 453 16,200 960 Climbing Atlanta Center
11:35PM 33.5558 -83.6872 79° East 394 453 16,700 300 Climbing Atlanta Center
11:36PM 33.5867 -83.5525 75° East 399 459 16,900 60 Climbing Atlanta Center
11:37PM 33.6172 -83.4078 76° East 399 459 16,900 -480 Level Atlanta Center
11:38PM 33.6458 -83.2728 76° East 405 466 16,000 -1,020 Descending Atlanta Center
11:39PM 33.6636 -83.1478 80° East 397 457 14,900 -1,080 Descending Atlanta Center
11:40PM 33.6772 -83.0228 83° East 384 442 13,900 -1,080 Descending Atlanta Center
11:41PM 33.6825 -82.8981 87° East 379 436 12,800 -960 Descending Atlanta Center
11:42PM 33.6836 -82.7856 89° East 356 410 12,000 -1,380 Descending Atlanta Center
11:43PM 33.6700 -82.6833 99° East 323 372 10,100 -1,800 Descending Atlanta Center
11:44PM 33.6500 -82.5889 104° East 311 358 8,400 -1,500 Descending Atlanta Center
11:45PM 33.6300 -82.4894 104° East 311 358 7,100 -1,440 Descending Atlanta Center
11:46PM 33.6100 -82.3950 104° East 306 352 5,600 -1,440 Descending Atlanta Center
11:47PM 33.5900 -82.3031 105° East 288 331 4,300 -1,260 Descending Atlanta Center
11:48PM 33.5783 -82.2211 100° East 269 310 3,100 -840 Descending Atlanta Center
11:49PM 33.5625 -82.1467 104° East 243 280 2,700 -300 Descending Atlanta Center
11:50PM 33.5678 -82.0792 85° East 225 259 2,500 -60 Descending Atlanta Center
11:51PM 33.6211 -82.0206 42° Northeast 200 230 2,600  Climbing Atlanta Center
11:52PM 33.6642 -81.9672 46° Northeast 206 237 2,600  Level Atlanta Center
11:53PM 33.7081 -81.9836 343° North 162 186 2,600  Level Atlanta Center
11:54PM 33.6644 -81.9972 195° South 46 53 2,600  Level Atlanta Center
11:55PM 33.6081 -81.9936 177° South 126 145 2,600  Level Atlanta Center
11:56PM 33.5497 -82.0000 185° South 172 198 2,600 -120 Level Atlanta Center
11:57PM 33.4933 -81.9986 179° South 199 229 2,400 -600 Descending Atlanta Center
11:58PM 33.4494 -81.9897 170° South 189 217 1,400 -900 Descending Atlanta Center
11:59PM 33.4075 -81.9783 167° South 170 196 700 -420 Descending Atlanta Center
12:00AM 33.3636 -81.9769 178° South 163 188 600 -120 Descending Atlanta Center